OISY  Yasouj Airport

Add Bookmark

Iran

Status
Operational
Latitude Longitude
30° 42' 1" N 51° 32' 42" E
30.700500 51.545101
Local (DST + 5) UTC (GMT + 4)
Jul 26, 2014 11:36 Jul 26, 2014 07:06
Sunrise-Sunset Local UTC
Begin Civil Twilight 05:50 01:20
Sunrise 06:16 01:46
Sunset 08:04 15:34
End Civil Twilight 08:30 16:00

Current Weather

METAR Observed VFR
OISY 260600Z 00000KT CAVOK 28/04 Q1014 Sat, Jul 26, 2014 @ 06:00 UTC
(1 Hour, 6 Minutes ago)
Visual Flight Rules

Decoded METAR

Wind Visibility Clouds Conditions
Calm 10 km or more
  • Clear skies
  • No significant weather
Temperatures Readings Precipitation
Current Temp 28°C (82°F)
Dewpoint 4°C (39°F)
Humidity 21%
Altimeter 29.94"Hg
Sea Level Pressure 1014mb
Field Elevation 5941.6'
None Recorded

Additional weather within a 92.6km radius of OISY

Map ICAO Location
OIAH 79.6km W (240°)

24 Hour Weather History

Loading
-

24 Hour Weather Graphs

Loading
-

CheckWX.com is intended as a tool to help pilots better visualize weather data. It is not intended as a substitute for an official weather briefing obtained from a Flight Service Station. CheckWX.com does not meet the FAA requirements for an official pre-flight weather briefing. Therefore, it's important that pilots still call and obtain an official FSS pre-flight weather briefing.